createdAt,value
2023-04-24T00:00:41.777Z,96496.00
2023-04-24T00:03:10.452Z,96499.00
2023-04-24T00:05:38.695Z,96498.00
2023-04-24T00:08:07.071Z,96488.00
2023-04-24T00:10:35.424Z,96501.00
2023-04-24T00:13:04.925Z,96495.00
2023-04-24T00:15:33.194Z,96501.00
2023-04-24T00:18:02.226Z,96507.00
2023-04-24T00:20:30.992Z,96490.00
2023-04-24T00:22:59.162Z,96491.00
2023-04-24T00:25:27.332Z,96493.00
2023-04-24T00:27:55.496Z,96497.00
2023-04-24T00:30:25.126Z,96493.00
2023-04-24T00:32:53.475Z,96495.00
2023-04-24T00:35:21.926Z,96494.00
2023-04-24T00:37:50.669Z,96492.00
2023-04-24T00:40:19.096Z,96491.00
2023-04-24T00:42:47.721Z,96468.00
2023-04-24T00:45:16.298Z,96477.00
2023-04-24T00:47:47.782Z,96476.00
2023-04-24T00:50:18.315Z,96477.00
2023-04-24T00:52:46.686Z,96473.00
2023-04-24T00:55:14.944Z,96474.00
2023-04-24T00:57:43.454Z,96487.00
2023-04-24T01:00:13.120Z,96480.00
2023-04-24T01:02:45.187Z,96488.00
2023-04-24T01:05:16.211Z,96486.00
2023-04-24T01:07:49.881Z,96475.00
2023-04-24T01:10:19.292Z,96479.00
2023-04-24T01:12:48.504Z,96494.00
2023-04-24T01:15:16.676Z,96469.00
2023-04-24T01:17:44.958Z,96490.00
2023-04-24T01:20:16.586Z,96484.00
2023-04-24T01:22:46.250Z,96487.00
2023-04-24T01:25:14.541Z,96483.00
2023-04-24T01:27:42.826Z,96474.00
2023-04-24T01:30:13.467Z,96486.00
2023-04-24T01:32:42.562Z,96472.00
2023-04-24T01:35:11.145Z,96475.00
2023-04-24T01:37:39.399Z,96474.00
2023-04-24T01:40:10.651Z,96495.00
2023-04-24T01:42:39.133Z,96488.00
2023-04-24T01:45:11.351Z,96478.00
2023-04-24T01:47:40.772Z,96475.00
2023-04-24T01:50:10.886Z,96478.00
2023-04-24T01:52:41.172Z,96485.00
2023-04-24T01:55:13.356Z,96478.00
2023-04-24T01:57:42.601Z,96471.00
2023-04-24T02:00:13.021Z,96483.00
2023-04-24T02:02:47.409Z,96472.00
2023-04-24T02:05:16.568Z,96459.00
2023-04-24T02:07:44.747Z,96455.00
2023-04-24T02:10:14.366Z,96447.00
2023-04-24T02:12:45.196Z,96462.00
2023-04-24T02:15:13.820Z,96438.00
2023-04-24T02:17:42.156Z,96450.00
2023-04-24T02:20:10.668Z,96442.00
2023-04-24T02:22:40.565Z,96440.00
2023-04-24T02:25:09.870Z,96448.00
2023-04-24T02:27:39.452Z,96447.00
2023-04-24T02:30:09.658Z,96451.00
2023-04-24T02:32:37.778Z,96452.00
2023-04-24T02:35:07.342Z,96452.00
2023-04-24T02:37:35.907Z,96448.00
2023-04-24T02:40:04.910Z,96451.00
2023-04-24T02:42:33.124Z,96439.00
2023-04-24T02:45:02.886Z,96439.00
2023-04-24T02:47:31.143Z,96433.00
2023-04-24T02:49:59.411Z,96439.00
2023-04-24T02:52:27.496Z,96436.00
2023-04-24T02:54:55.747Z,96437.00
2023-04-24T02:57:24.044Z,96444.00
2023-04-24T02:59:52.440Z,96443.00
2023-04-24T03:02:22.655Z,96434.00
2023-04-24T03:04:50.856Z,96434.00
2023-04-24T03:07:21.718Z,96447.00
2023-04-24T03:09:49.955Z,96436.00
2023-04-24T03:12:18.831Z,96439.00
2023-04-24T03:14:46.948Z,96433.00
2023-04-24T03:17:15.115Z,96430.00
2023-04-24T03:19:45.072Z,96433.00
2023-04-24T03:22:14.734Z,96436.00
2023-04-24T03:24:45.368Z,96431.00
2023-04-24T03:27:16.766Z,96428.00
2023-04-24T03:29:56.022Z,96433.00
2023-04-24T03:32:28.413Z,96434.00
2023-04-24T03:34:58.048Z,96436.00
2023-04-24T03:37:28.423Z,96446.00
2023-04-24T03:40:11.378Z,96446.00
2023-04-24T03:42:40.393Z,96443.00
2023-04-24T03:45:10.663Z,96427.00
2023-04-24T03:47:41.557Z,96436.00
2023-04-24T03:50:13.126Z,96428.00
2023-04-24T03:52:42.425Z,96433.00
2023-04-24T03:55:14.043Z,96445.00
2023-04-24T03:57:46.699Z,96441.00
2023-04-24T04:00:22.512Z,96437.00
2023-04-24T04:02:59.939Z,96452.00
2023-04-24T04:05:29.782Z,96448.00
2023-04-24T04:07:58.875Z,96449.00
2023-04-24T04:10:27.328Z,96445.00
2023-04-24T04:12:55.573Z,96453.00
2023-04-24T04:15:23.821Z,96451.00
2023-04-24T04:17:52.757Z,96450.00
2023-04-24T04:20:21.153Z,96444.00
2023-04-24T04:22:50.818Z,96447.00
2023-04-24T04:25:26.316Z,96444.00
2023-04-24T04:27:54.797Z,96448.00
2023-04-24T04:30:24.442Z,96438.00
2023-04-24T04:32:58.863Z,96445.00
2023-04-24T04:35:27.220Z,96450.00
2023-04-24T04:37:59.851Z,96447.00
2023-04-24T04:40:50.807Z,96437.00
2023-04-24T04:43:20.546Z,96434.00
2023-04-24T04:45:53.625Z,96444.00
2023-04-24T04:48:36.792Z,96456.00
2023-04-24T04:51:07.448Z,96440.00
2023-04-24T04:53:37.076Z,96437.00
2023-04-24T04:56:05.704Z,96446.00
2023-04-24T04:58:38.856Z,96442.00
2023-04-24T05:01:10.061Z,96448.00
2023-04-24T05:03:42.952Z,96450.00
2023-04-24T05:06:14.775Z,96452.00
2023-04-24T05:08:44.479Z,96449.00
2023-04-24T05:11:21.913Z,96455.00
2023-04-24T05:13:50.257Z,96459.00
2023-04-24T05:16:26.453Z,96467.00
2023-04-24T05:18:56.335Z,96464.00
2023-04-24T05:21:31.750Z,96468.00
2023-04-24T05:24:01.334Z,96468.00
2023-04-24T05:26:56.524Z,96473.00
2023-04-24T05:29:31.607Z,96486.00
2023-04-24T05:32:00.159Z,96491.00
2023-04-24T05:34:29.816Z,96479.00
2023-04-24T05:36:59.071Z,96490.00
2023-04-24T05:39:29.460Z,96495.00
2023-04-24T05:41:59.038Z,96498.00
2023-04-24T05:44:27.319Z,96479.00
2023-04-24T05:46:56.294Z,96501.00
2023-04-24T05:49:25.060Z,96490.00
2023-04-24T05:51:53.329Z,96490.00
2023-04-24T05:54:21.714Z,96510.00
2023-04-24T05:56:51.829Z,96504.00
2023-04-24T05:59:29.881Z,96499.00
2023-04-24T06:01:59.409Z,96502.00
2023-04-24T06:04:28.405Z,96498.00
2023-04-24T06:06:57.253Z,96493.00
2023-04-24T06:09:26.340Z,96505.00
2023-04-24T06:11:55.845Z,96508.00
2023-04-24T06:14:27.892Z,96506.00
2023-04-24T06:17:18.217Z,96512.00
2023-04-24T06:19:47.977Z,96518.00
2023-04-24T06:22:16.539Z,96501.00
2023-04-24T06:24:44.807Z,96512.00
2023-04-24T06:27:15.721Z,96525.00
2023-04-24T06:29:44.367Z,96521.00
2023-04-24T06:32:13.231Z,96517.00
2023-04-24T06:34:41.539Z,96521.00
2023-04-24T06:37:09.745Z,96524.00
2023-04-24T06:39:38.145Z,96536.00
2023-04-24T06:42:06.434Z,96530.00
2023-04-24T06:44:42.039Z,96526.00
2023-04-24T06:47:10.912Z,96536.00
2023-04-24T06:49:39.572Z,96527.00
2023-04-24T06:52:08.405Z,96535.00
2023-04-24T06:54:36.544Z,96529.00
2023-04-24T06:57:04.842Z,96538.00
2023-04-24T06:59:33.031Z,96554.00
2023-04-24T07:02:02.602Z,96545.00
2023-04-24T07:04:31.127Z,96551.00
2023-04-24T07:06:59.681Z,96545.00
2023-04-24T07:09:29.015Z,96564.00
2023-04-24T07:11:58.106Z,96558.00
2023-04-24T07:14:26.406Z,96555.00
2023-04-24T07:16:54.719Z,96551.00
2023-04-24T07:19:24.266Z,96580.00
2023-04-24T07:21:52.453Z,96572.00
2023-04-24T07:24:22.296Z,96576.00
2023-04-24T07:26:52.911Z,96581.00
2023-04-24T07:29:21.923Z,96586.00
2023-04-24T07:31:50.155Z,96583.00
2023-04-24T07:34:18.435Z,96576.00
2023-04-24T07:36:48.385Z,96594.00
2023-04-24T07:39:16.594Z,96580.00
2023-04-24T07:41:44.783Z,96591.00
2023-04-24T07:44:13.057Z,96603.00
2023-04-24T07:46:42.316Z,96599.00
2023-04-24T07:49:13.582Z,96591.00
2023-04-24T07:51:42.920Z,96594.00
2023-04-24T07:54:12.740Z,96603.00
2023-04-24T07:56:41.116Z,96605.00
2023-04-24T07:59:10.715Z,96596.00
2023-04-24T08:01:39.216Z,96606.00
2023-04-24T08:04:07.922Z,96596.00
2023-04-24T08:06:36.737Z,96603.00
2023-04-24T08:09:05.615Z,96598.00
2023-04-24T08:11:35.130Z,96592.00
2023-04-24T08:14:03.574Z,96600.00
2023-04-24T08:16:31.991Z,96604.00
2023-04-24T08:19:00.287Z,96603.00
2023-04-24T08:21:28.888Z,96613.00
2023-04-24T08:23:57.077Z,96613.00
2023-04-24T08:26:25.741Z,96618.00
2023-04-24T08:28:55.465Z,96627.00
2023-04-24T08:31:25.943Z,96637.00
2023-04-24T08:33:56.653Z,96634.00
2023-04-24T08:36:33.035Z,96643.00
2023-04-24T08:39:08.266Z,96639.00
2023-04-24T08:41:38.902Z,96636.00
2023-04-24T08:44:10.608Z,96651.00
2023-04-24T08:46:40.640Z,96640.00
2023-04-24T08:49:09.078Z,96649.00
2023-04-24T08:51:39.848Z,96639.00
2023-04-24T08:54:09.268Z,96637.00
2023-04-24T08:56:41.169Z,96640.00
2023-04-24T08:59:11.876Z,96637.00
2023-04-24T09:01:42.171Z,96625.00
2023-04-24T09:04:13.321Z,96636.00
2023-04-24T09:06:42.405Z,96621.00
2023-04-24T09:09:12.859Z,96621.00
2023-04-24T09:11:41.851Z,96628.00
2023-04-24T09:14:12.801Z,96632.00
2023-04-24T09:16:41.148Z,96625.00
2023-04-24T09:19:09.360Z,96625.00
2023-04-24T09:21:38.144Z,96621.00
2023-04-24T09:24:18.554Z,96609.00
2023-04-24T09:26:47.261Z,96623.00
2023-04-24T09:29:19.066Z,96613.00
2023-04-24T09:31:48.194Z,96616.00
2023-04-24T09:34:16.464Z,96614.00
2023-04-24T09:36:45.431Z,96624.00
2023-04-24T09:39:17.667Z,96619.00
2023-04-24T09:41:51.062Z,96624.00
2023-04-24T09:44:23.089Z,96608.00
2023-04-24T09:46:53.967Z,96611.00
2023-04-24T09:49:26.810Z,96627.00
2023-04-24T09:52:04.820Z,96617.00
2023-04-24T09:54:33.136Z,96623.00
2023-04-24T09:57:02.064Z,96616.00
2023-04-24T09:59:32.161Z,96621.00
2023-04-24T10:02:02.018Z,96627.00
2023-04-24T10:04:31.429Z,96620.00
2023-04-24T10:07:00.823Z,96623.00
2023-04-24T10:09:29.294Z,96627.00
2023-04-24T10:11:57.583Z,96641.00
2023-04-24T10:14:27.090Z,96633.00
2023-04-24T10:16:58.838Z,96633.00
2023-04-24T10:19:28.817Z,96635.00
2023-04-24T10:21:59.264Z,96628.00
2023-04-24T10:24:27.870Z,96639.00
2023-04-24T10:26:57.848Z,96630.00
2023-04-24T10:29:26.781Z,96623.00
2023-04-24T10:31:56.687Z,96647.00
2023-04-24T10:34:26.221Z,96664.00
2023-04-24T10:36:58.370Z,96660.00
2023-04-24T10:39:28.626Z,96653.00
2023-04-24T10:41:58.555Z,96643.00
2023-04-24T10:44:27.670Z,96664.00
2023-04-24T10:46:57.836Z,96675.00
2023-04-24T10:49:31.891Z,96647.00
2023-04-24T10:52:06.448Z,96649.00
2023-04-24T10:54:38.900Z,96658.00
2023-04-24T10:57:33.545Z,96642.00
2023-04-24T11:00:23.781Z,96645.00
2023-04-24T11:02:56.488Z,96645.00
2023-04-24T11:05:25.014Z,96648.00
2023-04-24T11:08:15.222Z,96675.00
2023-04-24T11:10:47.144Z,96666.00
2023-04-24T11:13:18.566Z,96687.00
2023-04-24T11:15:46.833Z,96684.00
2023-04-24T11:18:17.817Z,96688.00
2023-04-24T11:20:47.100Z,96673.00
2023-04-24T11:23:15.987Z,96703.00
2023-04-24T11:25:44.544Z,96701.00
2023-04-24T11:28:18.275Z,96697.00
2023-04-24T11:30:46.564Z,96693.00
2023-04-24T11:33:23.860Z,96700.00
2023-04-24T11:35:54.081Z,96694.00
2023-04-24T11:38:24.578Z,96711.00
2023-04-24T11:40:54.221Z,96712.00
2023-04-24T11:43:23.557Z,96695.00
2023-04-24T11:45:52.091Z,96690.00
2023-04-24T11:48:23.879Z,96700.00
2023-04-24T11:50:53.010Z,96705.00
2023-04-24T11:53:22.746Z,96714.00
2023-04-24T11:55:51.150Z,96698.00
2023-04-24T11:58:23.958Z,96702.00
2023-04-24T12:01:00.349Z,96718.00
2023-04-24T12:03:30.192Z,96721.00
2023-04-24T12:06:08.742Z,96720.00
2023-04-24T12:08:38.419Z,96722.00
2023-04-24T12:11:09.439Z,96705.00
2023-04-24T12:13:38.213Z,96715.00
2023-04-24T12:16:07.186Z,96710.00
2023-04-24T12:18:36.849Z,96712.00
2023-04-24T12:21:22.046Z,96726.00
2023-04-24T12:23:51.715Z,96724.00
2023-04-24T12:26:22.119Z,96749.00
2023-04-24T12:28:51.688Z,96736.00
2023-04-24T12:31:22.668Z,96735.00
2023-04-24T12:33:52.347Z,96750.00
2023-04-24T12:36:23.387Z,96732.00
2023-04-24T12:38:55.483Z,96730.00
2023-04-24T12:41:23.829Z,96744.00
2023-04-24T12:43:56.476Z,96743.00
2023-04-24T12:46:24.871Z,96743.00
2023-04-24T12:48:54.466Z,96773.00
2023-04-24T12:51:22.714Z,96763.00
2023-04-24T12:53:50.932Z,96763.00
2023-04-24T12:56:19.190Z,96749.00
2023-04-24T12:58:47.456Z,96768.00
2023-04-24T13:01:15.764Z,96761.00
2023-04-24T13:03:44.749Z,96765.00
2023-04-24T13:06:14.634Z,96769.00
2023-04-24T13:08:43.171Z,96752.00
2023-04-24T13:11:11.421Z,96745.00
2023-04-24T13:13:40.276Z,96763.00
2023-04-24T13:16:08.631Z,96753.00
2023-04-24T13:18:36.899Z,96762.00
2023-04-24T13:21:05.428Z,96750.00
2023-04-24T13:23:35.592Z,96744.00
2023-04-24T13:26:04.040Z,96756.00
2023-04-24T13:28:32.421Z,96760.00
2023-04-24T13:31:01.031Z,96760.00
2023-04-24T13:33:29.237Z,96788.00
2023-04-24T13:35:57.463Z,96770.00
2023-04-24T13:38:25.729Z,96750.00
2023-04-24T13:40:55.862Z,96752.00
2023-04-24T13:43:24.114Z,96765.00
2023-04-24T13:45:52.340Z,96749.00
2023-04-24T13:48:20.805Z,96751.00
2023-04-24T13:50:50.573Z,96754.00
2023-04-24T13:53:19.024Z,96761.00
2023-04-24T13:55:47.330Z,96772.00
2023-04-24T13:58:17.117Z,96770.00
2023-04-24T14:00:46.577Z,96774.00
2023-04-24T14:03:14.957Z,96769.00
2023-04-24T14:05:43.393Z,96779.00
2023-04-24T14:08:11.607Z,96782.00
2023-04-24T14:10:39.913Z,96779.00
2023-04-24T14:13:08.304Z,96778.00
2023-04-24T14:15:38.550Z,96774.00
2023-04-24T14:18:07.104Z,96772.00
2023-04-24T14:20:35.330Z,96764.00
2023-04-24T14:23:03.812Z,96779.00
2023-04-24T14:25:32.142Z,96772.00
2023-04-24T14:28:00.382Z,96773.00
2023-04-24T14:30:28.599Z,96771.00
2023-04-24T14:32:58.192Z,96772.00
2023-04-24T14:35:27.330Z,96776.00
2023-04-24T14:37:56.886Z,96770.00
2023-04-24T14:40:48.472Z,96776.00
2023-04-24T14:43:13.651Z,96780.00
2023-04-24T14:45:42.334Z,96776.00
2023-04-24T14:48:12.302Z,96793.00
2023-04-24T14:50:42.337Z,96800.00
2023-04-24T14:53:10.520Z,96817.00
2023-04-24T14:55:38.810Z,96822.00
2023-04-24T14:58:07.099Z,96813.00
2023-04-24T15:00:35.336Z,96802.00
2023-04-24T15:03:03.778Z,96790.00
2023-04-24T15:05:33.790Z,96806.00
2023-04-24T15:08:02.242Z,96807.00
2023-04-24T15:10:31.243Z,96807.00
2023-04-24T15:12:59.624Z,96804.00
2023-04-24T15:15:28.176Z,96810.00
2023-04-24T15:17:56.625Z,96802.00
2023-04-24T15:20:25.000Z,96795.00
2023-04-24T15:22:54.581Z,96805.00
2023-04-24T15:25:22.959Z,96817.00
2023-04-24T15:27:51.247Z,96799.00
2023-04-24T15:30:19.778Z,96804.00
2023-04-24T15:32:51.075Z,96804.00
2023-04-24T15:35:19.522Z,96799.00
2023-04-24T15:37:47.813Z,96801.00
2023-04-24T15:40:17.486Z,96799.00
2023-04-24T15:42:47.408Z,96793.00
2023-04-24T15:45:15.843Z,96791.00
2023-04-24T15:47:46.080Z,96800.00
2023-04-24T15:50:16.391Z,96796.00
2023-04-24T15:52:45.098Z,96797.00
2023-04-24T15:55:13.799Z,96785.00
2023-04-24T15:57:44.762Z,96795.00
2023-04-24T16:00:14.502Z,96795.00
2023-04-24T16:02:42.924Z,96802.00
2023-04-24T16:05:11.754Z,96795.00
2023-04-24T16:07:41.081Z,96791.00
2023-04-24T16:10:10.627Z,96787.00
2023-04-24T16:12:38.984Z,96787.00
2023-04-24T16:15:09.835Z,96795.00
2023-04-24T16:17:38.123Z,96801.00
2023-04-24T16:20:08.056Z,96801.00
2023-04-24T16:22:36.308Z,96801.00
2023-04-24T16:25:04.994Z,96803.00
2023-04-24T16:27:33.293Z,96808.00
2023-04-24T16:30:01.844Z,96807.00
2023-04-24T16:32:31.582Z,96812.00
2023-04-24T16:34:59.900Z,96821.00
2023-04-24T16:37:29.997Z,96806.00
2023-04-24T16:39:58.480Z,96799.00
2023-04-24T16:42:26.820Z,96807.00
2023-04-24T16:44:55.197Z,96807.00
2023-04-24T16:47:23.408Z,96810.00
2023-04-24T16:49:53.129Z,96809.00
2023-04-24T16:52:21.275Z,96805.00
2023-04-24T16:54:49.587Z,96817.00
2023-04-24T16:57:17.795Z,96820.00
2023-04-24T16:59:46.080Z,96814.00
2023-04-24T17:02:14.332Z,96817.00
2023-04-24T17:04:42.713Z,96806.00
2023-04-24T17:07:12.489Z,96814.00
2023-04-24T17:09:41.119Z,96815.00
2023-04-24T17:12:10.927Z,96812.00
2023-04-24T17:14:40.308Z,96802.00
2023-04-24T17:17:08.762Z,96815.00
2023-04-24T17:19:37.035Z,96801.00
2023-04-24T17:22:06.218Z,96828.00
2023-04-24T17:24:36.434Z,96822.00
2023-04-24T17:27:13.971Z,96831.00
2023-04-24T17:29:43.896Z,96834.00
2023-04-24T17:32:12.344Z,96846.00
2023-04-24T17:34:40.725Z,96845.00
2023-04-24T17:37:09.059Z,96843.00
2023-04-24T17:39:38.852Z,96832.00
2023-04-24T17:42:07.486Z,96842.00
2023-04-24T17:44:35.880Z,96852.00
2023-04-24T17:47:04.960Z,96844.00
2023-04-24T17:49:34.119Z,96848.00
2023-04-24T17:52:02.546Z,96848.00
2023-04-24T17:54:30.878Z,96850.00
2023-04-24T17:57:00.641Z,96861.00
2023-04-24T17:59:28.858Z,96851.00
2023-04-24T18:01:57.817Z,96856.00
2023-04-24T18:04:26.818Z,96857.00
2023-04-24T18:06:55.240Z,96872.00
2023-04-24T18:09:23.478Z,96867.00
2023-04-24T18:11:51.803Z,96871.00
2023-04-24T18:14:21.456Z,96856.00
2023-04-24T18:16:49.666Z,96871.00
2023-04-24T18:19:17.831Z,96870.00
2023-04-24T18:21:46.060Z,96859.00
2023-04-24T18:24:14.381Z,96866.00
2023-04-24T18:26:42.662Z,96868.00
2023-04-24T18:29:10.909Z,96877.00
2023-04-24T18:31:40.609Z,96870.00
2023-04-24T18:34:08.806Z,96877.00
2023-04-24T18:36:37.280Z,96868.00
2023-04-24T18:39:05.873Z,96880.00
2023-04-24T18:41:35.313Z,96878.00
2023-04-24T18:44:03.715Z,96886.00
2023-04-24T18:46:37.616Z,96880.00
2023-04-24T18:49:07.295Z,96882.00
2023-04-24T18:51:46.689Z,96884.00
2023-04-24T18:54:21.188Z,96885.00
2023-04-24T18:56:49.545Z,96889.00
2023-04-24T18:59:17.929Z,96903.00
2023-04-24T19:01:49.260Z,96895.00
2023-04-24T19:04:20.819Z,96902.00
2023-04-24T19:06:49.458Z,96910.00
2023-04-24T19:09:17.763Z,96907.00
2023-04-24T19:11:46.157Z,96924.00
2023-04-24T19:14:16.055Z,96914.00
2023-04-24T19:16:44.430Z,96911.00
2023-04-24T19:19:12.858Z,96910.00
2023-04-24T19:21:42.629Z,96914.00
2023-04-24T19:24:11.103Z,96930.00
2023-04-24T19:26:39.610Z,96927.00
2023-04-24T19:29:07.883Z,96928.00
2023-04-24T19:31:36.274Z,96935.00
2023-04-24T19:34:04.644Z,96938.00
2023-04-24T19:36:33.868Z,96925.00
2023-04-24T19:39:03.983Z,96925.00
2023-04-24T19:41:32.334Z,96938.00
2023-04-24T19:44:00.571Z,96932.00
2023-04-24T19:46:28.820Z,96928.00
2023-04-24T19:48:57.550Z,96922.00
2023-04-24T19:51:25.850Z,96933.00
2023-04-24T19:53:54.627Z,96938.00
2023-04-24T19:56:24.317Z,96927.00
2023-04-24T19:58:52.533Z,96935.00
2023-04-24T20:01:20.939Z,96934.00
2023-04-24T20:03:49.393Z,96928.00
2023-04-24T20:06:17.780Z,96915.00
2023-04-24T20:08:46.067Z,96922.00
2023-04-24T20:11:15.740Z,96922.00
2023-04-24T20:13:45.564Z,96929.00
2023-04-24T20:16:13.965Z,96929.00
2023-04-24T20:18:42.308Z,96919.00
2023-04-24T20:21:11.283Z,96917.00
2023-04-24T20:23:39.591Z,96923.00
2023-04-24T20:26:08.392Z,96914.00
2023-04-24T20:28:39.481Z,96916.00
2023-04-24T20:31:09.171Z,96934.00
2023-04-24T20:33:41.399Z,96927.00
2023-04-24T20:36:10.505Z,96922.00
2023-04-24T20:38:38.823Z,96927.00
2023-04-24T20:41:08.796Z,96914.00
2023-04-24T20:43:37.593Z,96928.00
2023-04-24T20:46:07.023Z,96912.00
2023-04-24T20:48:36.526Z,96910.00
2023-04-24T20:51:04.985Z,96920.00
2023-04-24T20:53:33.236Z,96921.00
2023-04-24T20:56:01.415Z,96921.00
2023-04-24T20:58:29.767Z,96913.00
2023-04-24T21:00:57.932Z,96911.00
2023-04-24T21:03:27.271Z,96913.00
2023-04-24T21:05:56.909Z,96911.00
2023-04-24T21:08:25.237Z,96924.00
2023-04-24T21:10:53.551Z,96910.00
2023-04-24T21:13:21.744Z,96910.00
2023-04-24T21:15:49.991Z,96909.00
2023-04-24T21:18:18.297Z,96908.00
2023-04-24T21:20:46.990Z,96904.00
2023-04-24T21:23:16.558Z,96902.00
2023-04-24T21:25:44.910Z,96909.00
2023-04-24T21:28:13.171Z,96906.00
2023-04-24T21:30:41.656Z,96906.00
2023-04-24T21:33:09.943Z,96906.00
2023-04-24T21:35:38.135Z,96903.00
2023-04-24T21:38:06.394Z,96899.00
2023-04-24T21:40:36.100Z,96895.00
2023-04-24T21:43:04.492Z,96898.00
2023-04-24T21:45:32.760Z,96907.00
2023-04-24T21:48:01.864Z,96897.00
2023-04-24T21:50:30.747Z,96894.00
2023-04-24T21:52:58.985Z,96882.00
2023-04-24T21:55:27.595Z,96885.00
2023-04-24T21:57:57.839Z,96881.00
2023-04-24T22:00:26.313Z,96880.00
2023-04-24T22:02:54.794Z,96881.00
2023-04-24T22:05:23.080Z,96889.00
2023-04-24T22:07:51.197Z,96870.00
2023-04-24T22:10:19.502Z,96874.00
2023-04-24T22:12:48.140Z,96871.00
2023-04-24T22:15:17.730Z,96868.00
2023-04-24T22:17:46.119Z,96870.00
2023-04-24T22:20:14.808Z,96858.00
2023-04-24T22:22:43.202Z,96861.00
2023-04-24T22:25:11.768Z,96868.00
2023-04-24T22:27:40.008Z,96866.00
2023-04-24T22:30:10.481Z,96857.00
2023-04-24T22:32:40.102Z,96866.00
2023-04-24T22:35:10.475Z,96867.00
2023-04-24T22:37:38.615Z,96864.00
2023-04-24T22:40:08.740Z,96862.00
2023-04-24T22:42:37.244Z,96866.00
2023-04-24T22:45:07.987Z,96870.00
2023-04-24T22:47:36.258Z,96873.00
2023-04-24T22:50:07.163Z,96878.00
2023-04-24T22:52:36.660Z,96869.00
2023-04-24T22:55:07.237Z,96864.00
2023-04-24T22:57:35.532Z,96854.00
2023-04-24T23:00:11.065Z,96851.00
2023-04-24T23:02:41.757Z,96855.00
2023-04-24T23:05:12.309Z,96857.00
2023-04-24T23:07:40.811Z,96853.00
2023-04-24T23:10:10.294Z,96860.00
2023-04-24T23:12:39.061Z,96859.00
2023-04-24T23:15:09.373Z,96844.00
2023-04-24T23:17:37.594Z,96831.00
2023-04-24T23:20:07.706Z,96840.00
2023-04-24T23:22:37.263Z,96838.00
2023-04-24T23:25:08.326Z,96830.00
2023-04-24T23:27:36.694Z,96826.00
2023-04-24T23:30:06.564Z,96829.00
2023-04-24T23:32:34.787Z,96821.00
2023-04-24T23:35:03.104Z,96826.00
2023-04-24T23:37:31.361Z,96833.00
2023-04-24T23:40:00.945Z,96814.00
2023-04-24T23:42:29.109Z,96800.00
2023-04-24T23:44:57.213Z,96807.00
2023-04-24T23:47:25.416Z,96808.00
2023-04-24T23:49:53.625Z,96810.00
2023-04-24T23:52:22.244Z,96804.00
2023-04-24T23:54:50.600Z,96799.00
2023-04-24T23:57:20.197Z,96796.00
2023-04-24T23:59:48.350Z,96805.00
